sensor_id;sensor_type;location;lat;lon;timestamp;pressure;altitude;pressure_sealevel;temperature;humidity
45253;BME280;63171;50.520;30.486;2023-07-31T00:02:24;99303.50;;;22.17;89.37
45253;BME280;63171;50.520;30.486;2023-07-31T00:03:15;99297.69;;;22.13;89.42
45253;BME280;63171;50.520;30.486;2023-07-31T00:04:05;99296.22;;;22.11;89.98
45253;BME280;63171;50.520;30.486;2023-07-31T00:04:55;99292.91;;;22.09;89.59
45253;BME280;63171;50.520;30.486;2023-07-31T00:05:46;99296.44;;;22.01;89.72
45253;BME280;63171;50.520;30.486;2023-07-31T00:06:35;99296.13;;;22.04;90.04
45253;BME280;63171;50.520;30.486;2023-07-31T00:07:26;99295.13;;;22.05;90.48
45253;BME280;63171;50.520;30.486;2023-07-31T00:08:16;99298.28;;;22.01;90.44
45253;BME280;63171;50.520;30.486;2023-07-31T00:09:07;99297.00;;;21.97;90.15
45253;BME280;63171;50.520;30.486;2023-07-31T00:09:57;99289.47;;;22.00;90.83
45253;BME280;63171;50.520;30.486;2023-07-31T00:10:50;99296.78;;;22.06;91.01
45253;BME280;63171;50.520;30.486;2023-07-31T00:11:42;99298.06;;;22.10;90.75
45253;BME280;63171;50.520;30.486;2023-07-31T00:12:32;99295.84;;;22.14;90.74
45253;BME280;63171;50.520;30.486;2023-07-31T00:13:23;99291.34;;;22.15;91.18
45253;BME280;63171;50.520;30.486;2023-07-31T00:14:13;99298.50;;;22.14;91.00
45253;BME280;63171;50.520;30.486;2023-07-31T00:15:05;99295.03;;;22.13;91.07
45253;BME280;63171;50.520;30.486;2023-07-31T00:15:56;99296.88;;;22.13;91.27
45253;BME280;63171;50.520;30.486;2023-07-31T00:16:46;99296.03;;;22.12;91.26
45253;BME280;63171;50.520;30.486;2023-07-31T00:17:37;99296.34;;;22.18;91.50
45253;BME280;63171;50.520;30.486;2023-07-31T00:18:27;99295.31;;;22.19;91.14
45253;BME280;63171;50.520;30.486;2023-07-31T00:19:17;99294.50;;;22.18;91.20
45253;BME280;63171;50.520;30.486;2023-07-31T00:20:08;99299.34;;;22.15;91.34
45253;BME280;63171;50.520;30.486;2023-07-31T00:20:58;99299.97;;;22.17;91.50
45253;BME280;63171;50.520;30.486;2023-07-31T00:21:48;99295.50;;;22.17;91.28
45253;BME280;63171;50.520;30.486;2023-07-31T00:22:39;99291.97;;;22.17;91.16
45253;BME280;63171;50.520;30.486;2023-07-31T00:23:29;99291.06;;;22.09;91.57
45253;BME280;63171;50.520;30.486;2023-07-31T00:24:20;99292.72;;;22.10;91.33
45253;BME280;63171;50.520;30.486;2023-07-31T00:25:10;99295.22;;;22.12;91.60
45253;BME280;63171;50.520;30.486;2023-07-31T00:26:00;99286.75;;;22.08;91.32
45253;BME280;63171;50.520;30.486;2023-07-31T00:26:52;99295.59;;;22.09;91.52
45253;BME280;63171;50.520;30.486;2023-07-31T00:27:42;99284.91;;;22.09;91.55
45253;BME280;63171;50.520;30.486;2023-07-31T00:28:35;99286.94;;;22.07;91.68
45253;BME280;63171;50.520;30.486;2023-07-31T00:29:25;99288.59;;;22.08;91.57
45253;BME280;63171;50.520;30.486;2023-07-31T00:30:15;99284.09;;;22.08;91.98
45253;BME280;63171;50.520;30.486;2023-07-31T00:31:06;99290.44;;;22.07;91.58
45253;BME280;63171;50.520;30.486;2023-07-31T00:31:56;99284.09;;;22.08;91.70
45253;BME280;63171;50.520;30.486;2023-07-31T00:32:46;99280.59;;;22.08;91.67
45253;BME280;63171;50.520;30.486;2023-07-31T00:33:37;99282.44;;;22.07;92.12
45253;BME280;63171;50.520;30.486;2023-07-31T00:34:27;99282.25;;;22.09;91.80
45253;BME280;63171;50.520;30.486;2023-07-31T00:35:17;99294.13;;;22.06;91.72
45253;BME280;63171;50.520;30.486;2023-07-31T00:36:08;99280.41;;;22.09;92.07
45253;BME280;63171;50.520;30.486;2023-07-31T00:36:58;99290.63;;;22.06;91.80
45253;BME280;63171;50.520;30.486;2023-07-31T00:37:49;99290.63;;;22.06;91.98
45253;BME280;63171;50.520;30.486;2023-07-31T00:38:39;99283.25;;;22.08;92.21
45253;BME280;63171;50.520;30.486;2023-07-31T00:39:30;99284.91;;;22.09;92.20
45253;BME280;63171;50.520;30.486;2023-07-31T00:40:21;99291.25;;;22.08;92.34
45253;BME280;63171;50.520;30.486;2023-07-31T00:41:11;99286.94;;;22.07;92.37
45253;BME280;63171;50.520;30.486;2023-07-31T00:42:03;99290.09;;;22.02;92.11
45253;BME280;63171;50.520;30.486;2023-07-31T00:42:54;99286.81;;;22.00;92.33
45253;BME280;63171;50.520;30.486;2023-07-31T00:43:43;99286.34;;;21.97;92.39
45253;BME280;63171;50.520;30.486;2023-07-31T00:44:34;99280.75;;;21.92;92.66
45253;BME280;63171;50.520;30.486;2023-07-31T00:45:24;99276.56;;;21.89;92.72
45253;BME280;63171;50.520;30.486;2023-07-31T00:46:16;99280.06;;;21.90;92.80
45253;BME280;63171;50.520;30.486;2023-07-31T00:47:07;99278.06;;;21.92;92.56
45253;BME280;63171;50.520;30.486;2023-07-31T00:47:57;99282.28;;;21.86;92.95
45253;BME280;63171;50.520;30.486;2023-07-31T00:48:47;99285.25;;;21.91;92.76
45253;BME280;63171;50.520;30.486;2023-07-31T00:49:38;99285.69;;;21.95;92.91
45253;BME280;63171;50.520;30.486;2023-07-31T00:50:28;99291.88;;;21.95;93.28
45253;BME280;63171;50.520;30.486;2023-07-31T00:51:18;99282.28;;;21.86;93.12
45253;BME280;63171;50.520;30.486;2023-07-31T00:52:09;99289.81;;;21.82;93.29
45253;BME280;63171;50.520;30.486;2023-07-31T00:52:59;99291.03;;;21.80;93.33
45253;BME280;63171;50.520;30.486;2023-07-31T00:53:49;99286.50;;;21.80;93.41
45253;BME280;63171;50.520;30.486;2023-07-31T00:54:40;99293.13;;;21.84;93.43
45253;BME280;63171;50.520;30.486;2023-07-31T00:55:30;99283.09;;;21.87;93.91
45253;BME280;63171;50.520;30.486;2023-07-31T00:56:21;99287.25;;;21.89;93.46
45253;BME280;63171;50.520;30.486;2023-07-31T00:57:13;99293.13;;;21.84;93.50
45253;BME280;63171;50.520;30.486;2023-07-31T00:58:02;99295.34;;;21.81;94.11
45253;BME280;63171;50.520;30.486;2023-07-31T00:58:52;99291.47;;;21.83;93.65
45253;BME280;63171;50.520;30.486;2023-07-31T00:59:43;99294.50;;;21.80;94.03
45253;BME280;63171;50.520;30.486;2023-07-31T01:00:33;99292.91;;;21.71;94.08
45253;BME280;63171;50.520;30.486;2023-07-31T01:01:23;99289.84;;;21.60;94.15
45253;BME280;63171;50.520;30.486;2023-07-31T01:02:14;99305.47;;;21.63;94.28
45253;BME280;63171;50.520;30.486;2023-07-31T01:03:04;99295.50;;;21.65;94.11
45253;BME280;63171;50.520;30.486;2023-07-31T01:03:53;99291.34;;;21.62;94.19
45253;BME280;63171;50.520;30.486;2023-07-31T01:04:45;99298.50;;;21.62;94.61
45253;BME280;63171;50.520;30.486;2023-07-31T01:05:42;99293.66;;;21.65;94.78
45253;BME280;63171;50.520;30.486;2023-07-31T01:06:37;99296.50;;;21.64;95.01
45253;BME280;63171;50.520;30.486;2023-07-31T01:07:35;99294.50;;;21.66;95.34
45253;BME280;63171;50.520;30.486;2023-07-31T01:08:34;99302.47;;;21.66;95.00
45253;BME280;63171;50.520;30.486;2023-07-31T01:09:32;99301.94;;;21.70;95.55
45253;BME280;63171;50.520;30.486;2023-07-31T01:10:27;99303.22;;;21.74;95.64
45253;BME280;63171;50.520;30.486;2023-07-31T01:11:26;99298.72;;;21.75;95.64
45253;BME280;63171;50.520;30.486;2023-07-31T01:12:20;99294.06;;;21.77;95.61
45253;BME280;63171;50.520;30.486;2023-07-31T01:13:10;99300.38;;;21.76;95.93
45253;BME280;63171;50.520;30.486;2023-07-31T01:14:01;99306.25;;;21.71;95.92
45253;BME280;63171;50.520;30.486;2023-07-31T01:14:52;99299.91;;;21.72;95.93
45253;BME280;63171;50.520;30.486;2023-07-31T01:15:52;99297.78;;;21.68;95.64
45253;BME280;63171;50.520;30.486;2023-07-31T01:16:41;99300.66;;;21.66;95.72
45253;BME280;63171;50.520;30.486;2023-07-31T01:17:32;99292.47;;;21.68;95.83
45253;BME280;63171;50.520;30.486;2023-07-31T01:18:22;99301.47;;;21.67;96.14
45253;BME280;63171;50.520;30.486;2023-07-31T01:19:14;99300.81;;;21.65;95.99
45253;BME280;63171;50.520;30.486;2023-07-31T01:20:10;99304.41;;;21.72;96.55
45253;BME280;63171;50.520;30.486;2023-07-31T01:21:11;99307.53;;;21.75;96.09
45253;BME280;63171;50.520;30.486;2023-07-31T01:22:38;99303.78;;;21.70;96.56
45253;BME280;63171;50.520;30.486;2023-07-31T01:23:55;99302.13;;;21.69;96.67
45253;BME280;63171;50.520;30.486;2023-07-31T01:24:59;99305.78;;;21.68;96.70
45253;BME280;63171;50.520;30.486;2023-07-31T01:25:56;99298.81;;;21.67;96.65
45253;BME280;63171;50.520;30.486;2023-07-31T01:26:53;99295.31;;;21.66;96.42
45253;BME280;63171;50.520;30.486;2023-07-31T01:27:51;99301.09;;;21.70;96.73
45253;BME280;63171;50.520;30.486;2023-07-31T01:28:50;99299.91;;;21.72;96.64
45253;BME280;63171;50.520;30.486;2023-07-31T01:29:48;99291.28;;;21.70;96.58
45253;BME280;63171;50.520;30.486;2023-07-31T01:30:42;99289.69;;;21.61;96.90
45253;BME280;63171;50.520;30.486;2023-07-31T01:31:33;99289.41;;;21.56;96.51
45253;BME280;63171;50.520;30.486;2023-07-31T01:32:25;99300.59;;;21.51;96.76
45253;BME280;63171;50.520;30.486;2023-07-31T01:33:18;99290.78;;;21.52;96.96
45253;BME280;63171;50.520;30.486;2023-07-31T01:34:10;99299.41;;;21.54;96.85
45253;BME280;63171;50.520;30.486;2023-07-31T01:35:01;99293.72;;;21.57;96.96
45253;BME280;63171;50.520;30.486;2023-07-31T01:35:50;99302.97;;;21.46;97.13
45253;BME280;63171;50.520;30.486;2023-07-31T01:36:41;99299.66;;;21.44;96.69
45253;BME280;63171;50.520;30.486;2023-07-31T01:37:31;99299.28;;;21.47;97.08
45253;BME280;63171;50.520;30.486;2023-07-31T01:38:22;99303.41;;;21.50;97.02
45253;BME280;63171;50.520;30.486;2023-07-31T01:39:12;99302.59;;;21.49;97.43
45253;BME280;63171;50.520;30.486;2023-07-31T01:40:05;99304.94;;;21.52;97.21
45253;BME280;63171;50.520;30.486;2023-07-31T01:40:56;99301.63;;;21.50;97.38
45253;BME280;63171;50.520;30.486;2023-07-31T01:41:49;99305.25;;;21.49;97.04
45253;BME280;63171;50.520;30.486;2023-07-31T01:42:40;99304.28;;;21.50;97.14
45253;BME280;63171;50.520;30.486;2023-07-31T01:43:30;99302.44;;;21.51;97.21
45253;BME280;63171;50.520;30.486;2023-07-31T01:44:20;99305.75;;;21.53;97.55
45253;BME280;63171;50.520;30.486;2023-07-31T01:45:11;99303.16;;;21.45;96.98
45253;BME280;63171;50.520;30.486;2023-07-31T01:46:01;99303.69;;;21.40;97.18
45253;BME280;63171;50.520;30.486;2023-07-31T01:46:51;99302.03;;;21.39;97.47
45253;BME280;63171;50.520;30.486;2023-07-31T01:47:43;99297.94;;;21.29;97.28
45253;BME280;63171;50.520;30.486;2023-07-31T01:48:35;99301.94;;;21.24;97.32
45253;BME280;63171;50.520;30.486;2023-07-31T01:49:26;99298.78;;;21.29;97.45
45253;BME280;63171;50.520;30.486;2023-07-31T01:50:17;99295.75;;;21.32;97.19
45253;BME280;63171;50.520;30.486;2023-07-31T01:51:07;99292.91;;;21.34;97.44
45253;BME280;63171;50.520;30.486;2023-07-31T01:51:57;99299.13;;;21.26;97.75
45253;BME280;63171;50.520;30.486;2023-07-31T01:52:47;99296.13;;;21.29;97.41
45253;BME280;63171;50.520;30.486;2023-07-31T01:53:39;99299.97;;;21.27;97.70
45253;BME280;63171;50.520;30.486;2023-07-31T01:54:29;99296.28;;;21.28;97.98
45253;BME280;63171;50.520;30.486;2023-07-31T01:55:19;99292.81;;;21.27;97.97
45253;BME280;63171;50.520;30.486;2023-07-31T01:56:10;99293.47;;;21.21;97.84
45253;BME280;63171;50.520;30.486;2023-07-31T01:57:00;99302.09;;;21.23;98.01
45253;BME280;63171;50.520;30.486;2023-07-31T01:57:51;99303.63;;;21.26;98.22
45253;BME280;63171;50.520;30.486;2023-07-31T01:58:42;99304.63;;;21.24;98.44
45253;BME280;63171;50.520;30.486;2023-07-31T01:59:31;99312.28;;;21.28;98.23
45253;BME280;63171;50.520;30.486;2023-07-31T02:00:22;99302.63;;;21.27;98.80
45253;BME280;63171;50.520;30.486;2023-07-31T02:01:12;99311.00;;;21.15;98.39
45253;BME280;63171;50.520;30.486;2023-07-31T02:02:03;99309.63;;;21.19;98.83
45253;BME280;63171;50.520;30.486;2023-07-31T02:02:53;99302.81;;;21.25;99.11
45253;BME280;63171;50.520;30.486;2023-07-31T02:03:43;99301.44;;;21.21;99.07
45253;BME280;63171;50.520;30.486;2023-07-31T02:04:34;99301.34;;;21.14;99.17
45253;BME280;63171;50.520;30.486;2023-07-31T02:05:24;99300.69;;;21.12;98.77
45253;BME280;63171;50.520;30.486;2023-07-31T02:06:14;99302.28;;;20.99;98.72
45253;BME280;63171;50.520;30.486;2023-07-31T02:07:05;99300.78;;;20.96;99.03
45253;BME280;63171;50.520;30.486;2023-07-31T02:07:55;99298.94;;;20.96;99.20
45253;BME280;63171;50.520;30.486;2023-07-31T02:08:50;99305.28;;;20.95;99.44
45253;BME280;63171;50.520;30.486;2023-07-31T02:09:40;99301.97;;;20.93;99.78
45253;BME280;63171;50.520;30.486;2023-07-31T02:10:30;99304.94;;;20.99;99.79
45253;BME280;63171;50.520;30.486;2023-07-31T02:11:24;99309.19;;;21.08;100.00
45253;BME280;63171;50.520;30.486;2023-07-31T02:12:13;99305.84;;;21.14;100.00
45253;BME280;63171;50.520;30.486;2023-07-31T02:13:03;99311.00;;;21.15;100.00
45253;BME280;63171;50.520;30.486;2023-07-31T02:13:54;99311.63;;;21.17;100.00
45253;BME280;63171;50.520;30.486;2023-07-31T02:14:44;99310.81;;;21.17;100.00
45253;BME280;63171;50.520;30.486;2023-07-31T02:15:36;99311.63;;;21.17;100.00
45253;BME280;63171;50.520;30.486;2023-07-31T02:16:26;99314.94;;;21.19;100.00
45253;BME280;63171;50.520;30.486;2023-07-31T02:17:17;99309.97;;;21.16;100.00
45253;BME280;63171;50.520;30.486;2023-07-31T02:18:07;99315.66;;;21.13;100.00
45253;BME280;63171;50.520;30.486;2023-07-31T02:18:58;99312.66;;;21.16;100.00
45253;BME280;63171;50.520;30.486;2023-07-31T02:19:49;99318.16;;;21.15;100.00
45253;BME280;63171;50.520;30.486;2023-07-31T02:20:40;99315.16;;;21.10;100.00
45253;BME280;63171;50.520;30.486;2023-07-31T02:21:30;99318.63;;;21.18;100.00
45253;BME280;63171;50.520;30.486;2023-07-31T02:22:20;99315.66;;;21.13;100.00
45253;BME280;63171;50.520;30.486;2023-07-31T02:23:10;99323.53;;;21.07;100.00
45253;BME280;63171;50.520;30.486;2023-07-31T02:24:00;99318.91;;;21.01;100.00
45253;BME280;63171;50.520;30.486;2023-07-31T02:24:51;99319.91;;;21.00;100.00
45253;BME280;63171;50.520;30.486;2023-07-31T02:25:41;99315.25;;;21.02;100.00
45253;BME280;63171;50.520;30.486;2023-07-31T02:26:32;99317.25;;;21.00;100.00
45253;BME280;63171;50.520;30.486;2023-07-31T02:27:23;99312.78;;;20.92;100.00
45253;BME280;63171;50.520;30.486;2023-07-31T02:28:16;99310.97;;;20.92;100.00
45253;BME280;63171;50.520;30.486;2023-07-31T02:29:06;99317.94;;;20.93;100.00
45253;BME280;63171;50.520;30.486;2023-07-31T02:29:57;99316.47;;;20.91;100.00
45253;BME280;63171;50.520;30.486;2023-07-31T02:30:50;99317.47;;;20.90;100.00
45253;BME280;63171;50.520;30.486;2023-07-31T02:31:41;99319.59;;;20.94;100.00
45253;BME280;63171;50.520;30.486;2023-07-31T02:32:31;99320.25;;;20.96;100.00
45253;BME280;63171;50.520;30.486;2023-07-31T02:33:21;99314.09;;;20.96;100.00
45253;BME280;63171;50.520;30.486;2023-07-31T02:34:12;99316.44;;;20.99;100.00
45253;BME280;63171;50.520;30.486;2023-07-31T02:35:02;99318.00;;;21.08;100.00
45253;BME280;63171;50.520;30.486;2023-07-31T02:35:52;99315.03;;;21.11;100.00
45253;BME280;63171;50.520;30.486;2023-07-31T02:36:45;99309.03;;;21.09;100.00
45253;BME280;63171;50.520;30.486;2023-07-31T02:37:36;99316.72;;;21.04;100.00
45253;BME280;63171;50.520;30.486;2023-07-31T02:38:27;99312.41;;;21.03;100.00
45253;BME280;63171;50.520;30.486;2023-07-31T02:39:17;99315.09;;;20.95;100.00
45253;BME280;63171;50.520;30.486;2023-07-31T02:40:08;99314.44;;;20.93;100.00
45253;BME280;63171;50.520;30.486;2023-07-31T02:40:59;99318.94;;;20.92;100.00
45253;BME280;63171;50.520;30.486;2023-07-31T02:41:52;99309.59;;;20.96;100.00
45253;BME280;63171;50.520;30.486;2023-07-31T02:42:43;99311.28;;;20.98;100.00
45253;BME280;63171;50.520;30.486;2023-07-31T02:43:33;99312.25;;;20.96;100.00
45253;BME280;63171;50.520;30.486;2023-07-31T02:44:24;99313.63;;;20.92;100.00
45253;BME280;63171;50.520;30.486;2023-07-31T02:45:14;99316.00;;;20.87;100.00
45253;BME280;63171;50.520;30.486;2023-07-31T02:46:05;99319.13;;;20.91;100.00
45253;BME280;63171;50.520;30.486;2023-07-31T02:46:55;99312.94;;;20.99;100.00
45253;BME280;63171;50.520;30.486;2023-07-31T02:47:44;99318.56;;;21.04;100.00
45253;BME280;63171;50.520;30.486;2023-07-31T02:48:36;99317.84;;;21.10;100.00
45253;BME280;63171;50.520;30.486;2023-07-31T02:49:25;99319.66;;;21.09;100.00
45253;BME280;63171;50.520;30.486;2023-07-31T02:50:16;99317.50;;;21.13;100.00
45253;BME280;63171;50.520;30.486;2023-07-31T02:51:06;99318.00;;;21.08;100.00
45253;BME280;63171;50.520;30.486;2023-07-31T02:51:56;99317.19;;;21.08;100.00
45253;BME280;63171;50.520;30.486;2023-07-31T02:52:47;99319.16;;;21.14;100.00
45253;BME280;63171;50.520;30.486;2023-07-31T02:53:37;99317.50;;;21.13;100.00
45253;BME280;63171;50.520;30.486;2023-07-31T02:54:27;99320.63;;;21.16;100.00
45253;BME280;63171;50.520;30.486;2023-07-31T02:55:17;99317.63;;;21.19;100.00
45253;BME280;63171;50.520;30.486;2023-07-31T02:56:08;99316.59;;;21.20;100.00
45253;BME280;63171;50.520;30.486;2023-07-31T02:57:00;99321.28;;;21.18;100.00
45253;BME280;63171;50.520;30.486;2023-07-31T02:57:51;99317.31;;;21.14;100.00
45253;BME280;63171;50.520;30.486;2023-07-31T02:58:42;99313.28;;;21.18;100.00
45253;BME280;63171;50.520;30.486;2023-07-31T02:59:32;99321.09;;;21.20;100.00
45253;BME280;63171;50.520;30.486;2023-07-31T03:00:23;99320.47;;;21.18;100.00
45253;BME280;63171;50.520;30.486;2023-07-31T03:01:12;99321.00;;;21.13;100.00
45253;BME280;63171;50.520;30.486;2023-07-31T03:02:03;99318.84;;;21.09;100.00
45253;BME280;63171;50.520;30.486;2023-07-31T03:02:53;99315.16;;;21.10;100.00
45253;BME280;63171;50.520;30.486;2023-07-31T03:03:43;99314.47;;;21.16;100.00
45253;BME280;63171;50.520;30.486;2023-07-31T03:04:35;99319.25;;;21.20;100.00
45253;BME280;63171;50.520;30.486;2023-07-31T03:05:26;99329.44;;;21.25;100.00
45253;BME280;63171;50.520;30.486;2023-07-31T03:06:15;99321.28;;;21.27;100.00
45253;BME280;63171;50.520;30.486;2023-07-31T03:07:06;99327.06;;;21.30;100.00
45253;BME280;63171;50.520;30.486;2023-07-31T03:07:56;99324.22;;;21.32;100.00
45253;BME280;63171;50.520;30.486;2023-07-31T03:08:47;99332.03;;;21.33;100.00
45253;BME280;63171;50.520;30.486;2023-07-31T03:09:38;99328.91;;;21.30;100.00
45253;BME280;63171;50.520;30.486;2023-07-31T03:10:28;99333.69;;;21.34;100.00
45253;BME280;63171;50.520;30.486;2023-07-31T03:11:18;99337.19;;;21.35;100.00
45253;BME280;63171;50.520;30.486;2023-07-31T03:12:10;99330.75;;;21.21;100.00
45253;BME280;63171;50.520;30.486;2023-07-31T03:13:01;99334.66;;;21.10;100.00
45253;BME280;63171;50.520;30.486;2023-07-31T03:13:51;99340.28;;;21.15;100.00
45253;BME280;63171;50.520;30.486;2023-07-31T03:14:41;99339.56;;;21.21;100.00
45253;BME280;63171;50.520;30.486;2023-07-31T03:15:31;99338.91;;;21.19;100.00
45253;BME280;63171;50.520;30.486;2023-07-31T03:16:21;99336.06;;;21.21;100.00
45253;BME280;63171;50.520;30.486;2023-07-31T03:17:12;99334.91;;;21.23;100.00
45253;BME280;63171;50.520;30.486;2023-07-31T03:18:03;99331.94;;;21.27;100.00
45253;BME280;63171;50.520;30.486;2023-07-31T03:18:52;99334.41;;;21.28;100.00
45253;BME280;63171;50.520;30.486;2023-07-31T03:19:44;99335.22;;;21.29;100.00
45253;BME280;63171;50.520;30.486;2023-07-31T03:20:34;99330.28;;;21.26;100.00
45253;BME280;63171;50.520;30.486;2023-07-31T03:21:24;99338.53;;;21.31;100.00
45253;BME280;63171;50.520;30.486;2023-07-31T03:22:15;99339.00;;;21.34;100.00
45253;BME280;63171;50.520;30.486;2023-07-31T03:23:04;99337.91;;;21.29;100.00
45253;BME280;63171;50.520;30.486;2023-07-31T03:23:54;99334.25;;;21.21;100.00
45253;BME280;63171;50.520;30.486;2023-07-31T03:24:45;99336.66;;;21.08;100.00
45253;BME280;63171;50.520;30.486;2023-07-31T03:25:35;99336.84;;;21.07;100.00
45253;BME280;63171;50.520;30.486;2023-07-31T03:26:25;99335.31;;;21.12;100.00
45253;BME280;63171;50.520;30.486;2023-07-31T03:27:18;99335.53;;;21.03;100.00
45253;BME280;63171;50.520;30.486;2023-07-31T03:28:08;99344.53;;;21.02;100.00
45253;BME280;63171;50.520;30.486;2023-07-31T03:28:58;99348.84;;;21.03;100.00
45253;BME280;63171;50.520;30.486;2023-07-31T03:29:49;99341.22;;;21.00;100.00
45253;BME280;63171;50.520;30.486;2023-07-31T03:30:40;99343.56;;;20.94;100.00
45253;BME280;63171;50.520;30.486;2023-07-31T03:31:31;99338.41;;;20.93;100.00
45253;BME280;63171;50.520;30.486;2023-07-31T03:32:21;99343.22;;;20.98;100.00
45253;BME280;63171;50.520;30.486;2023-07-31T03:33:11;99344.53;;;21.02;100.00
45253;BME280;63171;50.520;30.486;2023-07-31T03:34:01;99342.97;;;21.07;100.00
45253;BME280;63171;50.520;30.486;2023-07-31T03:34:53;99345.81;;;21.06;100.00
45253;BME280;63171;50.520;30.486;2023-07-31T03:35:43;99349.38;;;20.98;100.00
45253;BME280;63171;50.520;30.486;2023-07-31T03:36:34;99343.22;;;20.98;100.00
45253;BME280;63171;50.520;30.486;2023-07-31T03:37:25;99342.22;;;20.99;100.00
45253;BME280;63171;50.520;30.486;2023-07-31T03:38:15;99338.84;;;21.05;100.00
45253;BME280;63171;50.520;30.486;2023-07-31T03:39:06;99350.16;;;21.07;100.00
45253;BME280;63171;50.520;30.486;2023-07-31T03:39:56;99342.50;;;21.04;100.00
45253;BME280;63171;50.520;30.486;2023-07-31T03:40:46;99339.56;;;20.99;100.00
45253;BME280;63171;50.520;30.486;2023-07-31T03:41:37;99340.31;;;21.07;100.00
45253;BME280;63171;50.520;30.486;2023-07-31T03:42:28;99344.78;;;21.15;100.00
45253;BME280;63171;50.520;30.486;2023-07-31T03:43:18;99339.09;;;21.18;100.00
45253;BME280;63171;50.520;30.486;2023-07-31T03:44:09;99347.72;;;21.20;100.00
45253;BME280;63171;50.520;30.486;2023-07-31T03:44:59;99350.50;;;21.04;100.00
45253;BME280;63171;50.520;30.486;2023-07-31T03:45:50;99347.22;;;20.93;100.00
45253;BME280;63171;50.520;30.486;2023-07-31T03:46:40;99342.72;;;20.94;100.00
45253;BME280;63171;50.520;30.486;2023-07-31T03:47:30;99348.00;;;21.02;100.00
45253;BME280;63171;50.520;30.486;2023-07-31T03:48:20;99349.66;;;21.03;100.00
45253;BME280;63171;50.520;30.486;2023-07-31T03:49:11;99350.69;;;21.02;100.00
45253;BME280;63171;50.520;30.486;2023-07-31T03:50:01;99353.53;;;21.01;100.00
45253;BME280;63171;50.520;30.486;2023-07-31T03:50:51;99347.66;;;21.05;100.00
45253;BME280;63171;50.520;30.486;2023-07-31T03:51:42;99349.03;;;21.01;100.00
45253;BME280;63171;50.520;30.486;2023-07-31T03:52:32;99349.53;;;20.96;100.00
45253;BME280;63171;50.520;30.486;2023-07-31T03:53:22;99343.88;;;21.00;100.00
45253;BME280;63171;50.520;30.486;2023-07-31T03:54:12;99346.00;;;21.04;100.00
45253;BME280;63171;50.520;30.486;2023-07-31T03:55:04;99349.53;;;20.96;100.00
45253;BME280;63171;50.520;30.486;2023-07-31T03:55:55;99345.91;;;20.89;100.00
45253;BME280;63171;50.520;30.486;2023-07-31T03:56:45;99342.44;;;20.89;100.00
45253;BME280;63171;50.520;30.486;2023-07-31T03:57:36;99349.88;;;20.93;100.00
45253;BME280;63171;50.520;30.486;2023-07-31T03:58:27;99346.88;;;20.96;100.00
45253;BME280;63171;50.520;30.486;2023-07-31T03:59:17;99349.66;;;21.03;100.00
45253;BME280;63171;50.520;30.486;2023-07-31T04:00:08;99356.84;;;21.03;100.00
45253;BME280;63171;50.520;30.486;2023-07-31T04:01:04;99350.50;;;21.04;100.00
45253;BME280;63171;50.520;30.486;2023-07-31T04:01:54;99356.13;;;21.09;100.00
45253;BME280;63171;50.520;30.486;2023-07-31T04:02:44;99359.31;;;21.04;100.00
45253;BME280;63171;50.520;30.486;2023-07-31T04:03:35;99356.34;;;20.99;100.00
45253;BME280;63171;50.520;30.486;2023-07-31T04:04:25;99357.19;;;21.00;100.00
45253;BME280;63171;50.520;30.486;2023-07-31T04:05:16;99352.50;;;21.02;100.00
45253;BME280;63171;50.520;30.486;2023-07-31T04:06:06;99359.34;;;20.96;100.00
45253;BME280;63171;50.520;30.486;2023-07-31T04:06:58;99363.53;;;20.90;100.00
45253;BME280;63171;50.520;30.486;2023-07-31T04:07:48;99362.84;;;20.96;100.00
45253;BME280;63171;50.520;30.486;2023-07-31T04:08:39;99361.88;;;20.98;100.00
45253;BME280;63171;50.520;30.486;2023-07-31T04:09:28;99364.41;;;20.83;100.00
45253;BME280;63171;50.520;30.486;2023-07-31T04:10:18;99363.56;;;20.82;100.00
45253;BME280;63171;50.520;30.486;2023-07-31T04:11:09;99360.22;;;20.88;100.00
45253;BME280;63171;50.520;30.486;2023-07-31T04:11:59;99358.88;;;20.92;100.00
45253;BME280;63171;50.520;30.486;2023-07-31T04:12:51;99364.84;;;20.94;100.00
45253;BME280;63171;50.520;30.486;2023-07-31T04:13:41;99359.03;;;20.99;100.00
45253;BME280;63171;50.520;30.486;2023-07-31T04:14:32;99361.53;;;20.92;100.00
45253;BME280;63171;50.520;30.486;2023-07-31T04:15:21;99363.53;;;20.90;100.00
45253;BME280;63171;50.520;30.486;2023-07-31T04:16:11;99359.41;;;20.88;100.00
45253;BME280;63171;50.520;30.486;2023-07-31T04:17:02;99363.53;;;20.90;100.00
45253;BME280;63171;50.520;30.486;2023-07-31T04:17:52;99353.44;;;20.86;100.00
45253;BME280;63171;50.520;30.486;2023-07-31T04:18:42;99352.44;;;20.87;100.00
45253;BME280;63171;50.520;30.486;2023-07-31T04:19:33;99359.78;;;20.77;100.00
45253;BME280;63171;50.520;30.486;2023-07-31T04:20:23;99365.63;;;20.72;100.00
45253;BME280;63171;50.520;30.486;2023-07-31T04:21:14;99363.16;;;20.71;100.00
45253;BME280;63171;50.520;30.486;2023-07-31T04:22:04;99360.44;;;20.79;100.00
45253;BME280;63171;50.520;30.486;2023-07-31T04:22:55;99363.75;;;20.81;100.00
45253;BME280;63171;50.520;30.486;2023-07-31T04:23:44;99364.09;;;20.78;100.00
45253;BME280;63171;50.520;30.486;2023-07-31T04:24:35;99359.31;;;20.65;100.00
45253;BME280;63171;50.520;30.486;2023-07-31T04:25:25;99360.16;;;20.65;100.00
45253;BME280;63171;50.520;30.486;2023-07-31T04:26:16;99356.50;;;20.66;100.00
45253;BME280;63171;50.520;30.486;2023-07-31T04:27:06;99366.47;;;20.64;100.00
45253;BME280;63171;50.520;30.486;2023-07-31T04:27:57;99359.50;;;20.63;100.00